Time;durP1;ratioP1;P1;durP2;ratioP2;P2;SDS_P1;SDS_P2;PMS_P1;PMS_P2;Temp;Humidity;BMP_temperature;BMP_pressure;BME280_temperature;BME280_humidity;BME280_pressure;Samples;Min_cycle;Max_cycle;Signal;HPM_P1;HPM_P2
2023/09/23 00:02:09;;;;;;;9.73;8.73;;;;;;;9.42;100.00;100666.81;6208151;23;20165;-70
2023/09/23 00:04:35;;;;;;;10.85;9.85;;;;;;;9.41;100.00;100663.34;6159671;23;20020;-71
2023/09/23 00:07:00;;;;;;;11.43;10.40;;;;;;;9.36;100.00;100679.06;6158944;23;20311;-70
2023/09/23 00:09:27;;;;;;;11.95;10.85;;;;;;;9.34;100.00;100675.63;6183352;23;20443;-71
2023/09/23 00:11:52;;;;;;;12.38;11.18;;;;;;;9.28;100.00;100675.69;6208762;23;20012;-70
2023/09/23 00:14:17;;;;;;;12.50;11.30;;;;;;;9.26;100.00;100680.03;6158906;23;20315;-70
2023/09/23 00:16:46;;;;;;;13.13;11.88;;;;;;;9.21;100.00;100680.97;6182793;23;20016;-70
2023/09/23 00:19:12;;;;;;;13.48;12.27;;;;;;;9.19;100.00;100670.50;6158282;23;20140;-70
2023/09/23 00:21:37;;;;;;;15.05;13.75;;;;;;;9.15;100.00;100668.81;6208405;23;20012;-70
2023/09/23 00:24:05;;;;;;;15.75;14.45;;;;;;;9.13;100.00;100670.56;6183600;23;20024;-70
2023/09/23 00:26:32;;;;;;;17.52;15.98;;;;;;;9.13;100.00;100679.28;6134569;23;20036;-71
2023/09/23 00:28:58;;;;;;;18.85;16.98;;;;;;;9.11;100.00;100673.22;6183023;23;20032;-70
2023/09/23 00:31:24;;;;;;;20.65;18.92;;;;;;;9.14;100.00;100673.19;6157799;23;20360;-70
2023/09/23 00:33:50;;;;;;;21.15;19.25;;;;;;;9.11;100.00;100674.97;6182946;23;20009;-70
2023/09/23 00:36:16;;;;;;;21.23;19.33;;;;;;;9.13;100.00;100679.28;6208349;23;20001;-70
2023/09/23 00:38:41;;;;;;;21.23;19.42;;;;;;;9.13;100.00;100694.09;6182750;23;20012;-70
2023/09/23 00:41:08;;;;;;;22.70;20.75;;;;;;;9.12;100.00;100689.75;6183712;23;20140;-70
2023/09/23 00:43:34;;;;;;;21.80;19.98;;;;;;;9.08;100.00;100688.03;6183161;23;20009;-70
2023/09/23 00:46:04;;;;;;;22.85;20.95;;;;;;;9.10;100.00;100707.22;6158278;23;20013;-70
2023/09/23 00:48:40;;;;;;;24.20;22.00;;;;;;;9.12;100.00;100701.09;6206340;23;20379;-71
2023/09/23 00:51:09;;;;;;;23.45;21.35;;;;;;;9.14;100.00;100701.09;6208294;23;20012;-70
2023/09/23 00:53:39;;;;;;;24.63;22.55;;;;;;;9.18;100.00;100703.66;6183079;23;20025;-70
2023/09/23 00:56:05;;;;;;;26.00;23.50;;;;;;;9.19;100.00;100702.78;6182624;23;20008;-69
2023/09/23 00:58:31;;;;;;;25.70;23.23;;;;;;;9.24;100.00;100704.47;6157640;23;20009;-70
2023/09/23 01:00:58;;;;;;;26.17;23.67;;;;;;;9.25;100.00;100706.19;6182807;23;20347;-70
2023/09/23 01:03:24;;;;;;;25.55;23.08;;;;;;;9.24;100.00;100710.56;6156800;23;20091;-70
2023/09/23 01:06:15;;;;;;;26.38;23.77;;;;;;;9.19;100.00;100702.78;6207711;23;20042;-70
2023/09/23 01:08:45;;;;;;;25.35;23.05;;;;;;;9.23;100.00;100702.75;6185757;23;20028;-70
2023/09/23 01:11:12;;;;;;;26.60;24.08;;;;;;;9.18;100.00;100701.03;6158701;23;20019;-70
2023/09/23 01:13:37;;;;;;;26.13;23.80;;;;;;;9.25;100.00;100712.31;6207430;23;20020;-70
2023/09/23 01:16:07;;;;;;;25.55;23.17;;;;;;;9.25;100.00;100700.97;6182664;23;20012;-70
2023/09/23 01:18:34;;;;;;;23.98;21.77;;;;;;;9.23;100.00;100708.84;6157264;23;20020;-71
2023/09/23 01:21:01;;;;;;;25.10;22.73;;;;;;;9.24;100.00;100707.06;6158361;23;20040;-70
2023/09/23 01:23:26;;;;;;;24.95;22.60;;;;;;;9.25;100.00;100711.44;6182617;23;20016;-70
2023/09/23 01:25:52;;;;;;;23.60;21.38;;;;;;;9.22;100.00;100724.53;6157865;23;20013;-70
2023/09/23 01:28:18;;;;;;;24.48;21.98;;;;;;;9.17;100.00;100730.66;6157498;23;20438;-70
2023/09/23 01:30:45;;;;;;;22.83;20.52;;;;;;;9.26;100.00;100727.09;6182376;23;20017;-69
2023/09/23 01:33:13;;;;;;;22.33;20.17;;;;;;;9.27;100.00;100731.47;6157429;23;20064;-68
2023/09/23 01:35:39;;;;;;;22.83;20.52;;;;;;;9.31;100.00;100733.19;6182679;23;20337;-70
2023/09/23 01:38:06;;;;;;;22.65;20.15;;;;;;;9.36;100.00;100733.13;6182329;23;20013;-69
2023/09/23 01:40:33;;;;;;;22.95;18.92;;;;;;;9.43;100.00;100736.56;6182736;23;20016;-70
2023/09/23 01:42:58;;;;;;;21.23;18.90;;;;;;;9.46;100.00;100737.41;6157757;23;20100;-70
2023/09/23 01:45:25;;;;;;;21.65;19.35;;;;;;;9.47;100.00;100738.28;6182512;23;20447;-69
2023/09/23 01:47:52;;;;;;;21.05;18.80;;;;;;;9.57;100.00;100742.56;6180921;23;20107;-70
2023/09/23 01:50:18;;;;;;;22.88;17.92;;;;;;;9.65;100.00;100743.31;6207381;23;20011;-70
2023/09/23 01:52:45;;;;;;;21.83;17.77;;;;;;;9.70;100.00;100748.53;6207293;23;20032;-69
2023/09/23 01:55:16;;;;;;;19.55;16.98;;;;;;;9.71;100.00;100752.88;6182137;23;20068;-69
2023/09/23 01:57:42;;;;;;;18.85;16.85;;;;;;;9.75;100.00;100759.81;6181756;23;20005;-69
2023/09/23 02:00:17;;;;;;;18.38;16.23;;;;;;;9.80;100.00;100752.78;6207401;23;20395;-69
2023/09/23 02:02:44;;;;;;;18.20;15.98;;;;;;;9.80;100.00;100747.56;6206189;23;20458;-69
2023/09/23 02:05:10;;;;;;;17.67;15.52;;;;;;;9.82;100.00;100743.16;6157479;23;20031;-70
2023/09/23 02:07:35;;;;;;;20.52;14.57;;;;;;;9.84;100.00;100748.38;6181899;23;20435;-70
2023/09/23 02:10:01;;;;;;;18.90;14.25;;;;;;;9.89;100.00;100746.59;6182520;23;20009;-69
2023/09/23 02:12:27;;;;;;;16.88;13.95;;;;;;;9.92;100.00;100756.16;6182535;23;20502;-69
2023/09/23 02:14:53;;;;;;;19.30;13.77;;;;;;;9.88;100.00;100761.44;6157646;23;20016;-69
2023/09/23 02:17:19;;;;;;;16.13;13.10;;;;;;;9.86;100.00;100760.56;6182121;23;20012;-70
2023/09/23 02:19:46;;;;;;;17.30;13.40;;;;;;;9.90;100.00;100758.81;6182086;23;20012;-69
2023/09/23 02:22:12;;;;;;;15.30;12.32;;;;;;;9.88;100.00;100771.03;6182961;23;20031;-69
2023/09/23 02:24:37;;;;;;;14.20;11.70;;;;;;;9.86;100.00;100771.03;6182429;23;20427;-70
2023/09/23 02:27:03;;;;;;;13.75;11.13;;;;;;;9.88;100.00;100771.03;6182411;23;20311;-69
2023/09/23 02:29:33;;;;;;;20.45;11.43;;;;;;;9.84;100.00;100774.53;6183727;23;20064;-69
2023/09/23 02:32:00;;;;;;;16.40;11.32;;;;;;;9.80;100.00;100770.25;6206863;23;20012;-69
2023/09/23 02:34:26;;;;;;;12.75;10.55;;;;;;;9.77;100.00;100779.00;6205125;23;20037;-69
2023/09/23 02:36:53;;;;;;;14.63;10.27;;;;;;;9.73;100.00;100781.66;6155861;23;20016;-69
2023/09/23 02:39:21;;;;;;;17.77;10.80;;;;;;;9.73;100.00;100789.50;6157474;23;19997;-69
2023/09/23 02:41:48;;;;;;;14.85;9.93;;;;;;;9.67;100.00;100783.44;6182753;23;20406;-69
2023/09/23 02:44:15;;;;;;;14.38;10.00;;;;;;;9.65;100.00;100793.03;6182091;23;20016;-69
2023/09/23 02:46:42;;;;;;;14.32;9.43;;;;;;;9.62;100.00;100800.91;6181426;23;20028;-69
2023/09/23 02:49:08;;;;;;;15.05;9.32;;;;;;;9.63;100.00;100802.66;6157037;23;20084;-69
2023/09/23 02:51:33;;;;;;;14.25;9.60;;;;;;;9.59;100.00;100800.09;6207361;23;20079;-70
2023/09/23 02:53:59;;;;;;;13.05;9.32;;;;;;;9.58;100.00;100806.19;6157282;23;20438;-69
2023/09/23 02:56:24;;;;;;;11.23;9.02;;;;;;;9.57;100.00;100802.72;6181998;23;20037;-69
2023/09/23 02:58:52;;;;;;;14.27;9.40;;;;;;;9.53;100.00;100808.84;6181836;23;20005;-69
2023/09/23 03:01:18;;;;;;;12.85;9.10;;;;;;;9.54;100.00;100814.06;6158232;23;19997;-69
2023/09/23 03:03:46;;;;;;;12.02;9.13;;;;;;;9.54;100.00;100810.59;6205723;23;20016;-69
2023/09/23 03:06:16;;;;;;;14.05;8.48;;;;;;;9.52;100.00;100815.84;6157495;23;20016;-69
2023/09/23 03:08:47;;;;;;;11.68;8.70;;;;;;;9.46;100.00;100805.41;6157750;23;20009;-69
2023/09/23 03:11:17;;;;;;;13.52;8.82;;;;;;;9.46;100.00;100809.78;6134116;23;20316;-69
2023/09/23 03:13:43;;;;;;;14.18;8.32;;;;;;;9.46;100.00;100809.78;6158027;23;20009;-70
2023/09/23 03:16:12;;;;;;;14.02;8.98;;;;;;;9.46;100.00;100812.41;6205800;23;20514;-69
2023/09/23 03:18:44;;;;;;;11.38;8.07;;;;;;;9.44;100.00;100814.13;6205638;23;20028;-70
2023/09/23 03:21:10;;;;;;;12.95;8.30;;;;;;;9.41;100.00;100811.53;6183647;23;20016;-69
2023/09/23 03:23:40;;;;;;;11.05;8.15;;;;;;;9.45;100.00;100822.00;6182345;23;20017;-70
2023/09/23 03:26:07;;;;;;;13.45;8.48;;;;;;;9.43;100.00;100822.88;6184212;23;20339;-69
2023/09/23 03:28:36;;;;;;;13.88;7.90;;;;;;;9.42;100.00;100824.59;6184148;23;20024;-69
2023/09/23 03:31:02;;;;;;;11.25;8.15;;;;;;;9.43;100.00;100828.13;6184034;23;20017;-69
2023/09/23 03:33:29;;;;;;;11.45;8.07;;;;;;;9.38;100.00;100827.25;6182618;23;20028;-69
2023/09/23 03:35:55;;;;;;;13.48;7.65;;;;;;;9.43;100.00;100833.34;6159300;23;20024;-69
2023/09/23 03:38:21;;;;;;;12.90;7.50;;;;;;;9.48;100.00;100847.25;6159364;23;20016;-69
2023/09/23 03:40:54;;;;;;;11.43;7.82;;;;;;;9.47;100.00;100837.69;6209003;23;20064;-69
2023/09/23 03:43:20;;;;;;;12.93;7.63;;;;;;;9.46;100.00;100835.94;6208751;23;20001;-69
2023/09/23 03:45:47;;;;;;;11.32;7.30;;;;;;;9.42;100.00;100839.44;6208772;23;20009;-69
2023/09/23 03:48:13;;;;;;;12.35;7.07;;;;;;;9.42;100.00;100836.84;6183254;23;20048;-70
2023/09/23 03:50:39;;;;;;;11.27;7.00;;;;;;;9.44;100.00;100835.94;6183818;23;20384;-70
2023/09/23 03:53:05;;;;;;;11.43;7.28;;;;;;;9.44;100.00;100835.06;6158658;23;20076;-69
2023/09/23 03:55:31;;;;;;;10.65;6.90;;;;;;;9.41;100.00;100838.59;6183928;23;20009;-69
2023/09/23 03:57:57;;;;;;;12.90;7.18;;;;;;;9.36;100.00;100846.44;6183968;23;20009;-70
2023/09/23 04:00:26;;;;;;;10.50;6.38;;;;;;;9.34;100.00;100849.97;6184479;23;20011;-69
2023/09/23 04:02:52;;;;;;;11.20;6.97;;;;;;;9.40;100.00;100852.53;6207636;23;20057;-69
2023/09/23 04:05:20;;;;;;;10.90;6.47;;;;;;;9.42;100.00;100849.91;6208748;23;20009;-69
2023/09/23 04:07:49;;;;;;;10.52;6.53;;;;;;;9.41;100.00;100851.66;6158367;23;20013;-69
2023/09/23 04:10:15;;;;;;;13.93;6.43;;;;;;;9.41;100.00;100858.63;6135667;23;20025;-69
2023/09/23 04:12:41;;;;;;;11.60;6.78;;;;;;;9.40;100.00;100859.53;6182601;23;20341;-69
2023/09/23 04:15:07;;;;;;;13.88;6.78;;;;;;;9.38;100.00;100863.88;6157986;23;20109;-69
2023/09/23 04:17:33;;;;;;;11.45;7.25;;;;;;;9.38;100.00;100858.66;6158221;23;20017;-69
2023/09/23 04:19:58;;;;;;;10.65;6.75;;;;;;;9.34;100.00;100858.69;6158331;23;20063;-69
2023/09/23 04:22:24;;;;;;;8.95;6.45;;;;;;;9.34;100.00;100857.81;6158770;23;20017;-69
2023/09/23 04:24:49;;;;;;;11.60;6.72;;;;;;;9.32;100.00;100863.06;6158128;23;20312;-70
2023/09/23 04:27:16;;;;;;;18.45;7.85;;;;;;;9.34;100.00;100857.81;6158489;23;20084;-69
2023/09/23 04:29:41;;;;;;;11.00;6.82;;;;;;;9.30;100.00;100862.19;6183730;23;20028;-70
2023/09/23 04:32:07;;;;;;;12.27;7.35;;;;;;;9.29;100.00;100864.81;6158369;23;20017;-69
2023/09/23 04:34:35;;;;;;;14.90;7.38;;;;;;;9.31;100.00;100874.38;6157596;23;20427;-69
2023/09/23 04:37:04;;;;;;;10.30;7.25;;;;;;;9.30;100.00;100880.50;6159338;23;20084;-69
2023/09/23 04:39:30;;;;;;;12.32;7.40;;;;;;;9.32;100.00;100886.59;6184398;23;20013;-69
2023/09/23 04:41:56;;;;;;;13.90;7.35;;;;;;;9.36;100.00;100883.06;6134175;23;20005;-69
2023/09/23 04:44:21;;;;;;;10.30;6.70;;;;;;;9.38;100.00;100890.03;6157502;23;20019;-69
2023/09/23 04:46:47;;;;;;;14.35;7.03;;;;;;;9.40;100.00;100888.28;6156113;23;20012;-70
2023/09/23 04:49:12;;;;;;;11.50;6.25;;;;;;;9.39;100.00;100889.16;6133775;23;20005;-69
2023/09/23 04:51:38;;;;;;;14.18;7.25;;;;;;;9.37;100.00;100897.03;6158832;23;20019;-69
2023/09/23 04:54:04;;;;;;;10.60;6.25;;;;;;;9.38;100.00;100905.72;6158333;23;20015;-70
2023/09/23 04:56:29;;;;;;;13.73;6.82;;;;;;;9.39;100.00;100897.00;6158722;23;20028;-69
2023/09/23 04:58:58;;;;;;;9.57;6.40;;;;;;;9.37;100.00;100899.63;6183249;23;20009;-70
2023/09/23 05:01:24;;;;;;;11.30;6.47;;;;;;;9.35;100.00;100904.88;6183862;23;20088;-69
2023/09/23 05:03:52;;;;;;;10.05;6.22;;;;;;;9.36;100.00;100910.97;6157704;23;20389;-70
2023/09/23 05:06:17;;;;;;;10.98;6.70;;;;;;;9.33;100.00;100909.22;6207654;23;20013;-69
2023/09/23 05:08:43;;;;;;;13.35;6.93;;;;;;;9.34;100.00;100910.97;6158650;23;20518;-70
2023/09/23 05:11:11;;;;;;;11.15;6.85;;;;;;;9.38;100.00;100908.34;6158156;23;20129;-70
2023/09/23 05:13:37;;;;;;;11.15;7.03;;;;;;;9.31;100.00;100917.97;6183674;23;20009;-69
2023/09/23 05:16:03;;;;;;;12.25;6.70;;;;;;;9.28;100.00;100921.47;6157698;23;20339;-69
2023/09/23 05:18:29;;;;;;;11.30;7.15;;;;;;;9.29;100.00;100928.44;6182348;23;20008;-69
2023/09/23 05:20:54;;;;;;;11.70;7.13;;;;;;;9.29;100.00;100941.50;6183220;23;20100;-69
2023/09/23 05:23:23;;;;;;;12.55;7.25;;;;;;;9.29;100.00;100954.56;6158218;23;20045;-69
2023/09/23 05:25:49;;;;;;;9.75;6.00;;;;;;;9.26;100.00;100956.34;6183073;23;20092;-69
2023/09/23 05:28:15;;;;;;;10.93;6.82;;;;;;;9.28;100.00;100958.09;6182934;23;20012;-69
2023/09/23 05:30:41;;;;;;;13.82;7.20;;;;;;;9.27;100.00;100964.19;6207792;23;20113;-69
2023/09/23 05:33:06;;;;;;;10.98;7.00;;;;;;;9.32;100.00;100965.06;6132392;23;20048;-69
2023/09/23 05:35:32;;;;;;;9.75;7.72;;;;;;;9.31;100.00;100962.41;6207614;23;20008;-69
2023/09/23 05:37:57;;;;;;;11.70;7.10;;;;;;;9.33;100.00;100973.75;6157746;23;20005;-69
2023/09/23 05:40:23;;;;;;;10.13;6.70;;;;;;;9.37;100.00;100975.50;6183118;23;20013;-70
2023/09/23 05:42:50;;;;;;;12.88;6.93;;;;;;;9.38;100.00;100973.72;6156911;23;20100;-70
2023/09/23 05:45:16;;;;;;;9.73;6.47;;;;;;;9.36;100.00;100981.59;6182580;23;20312;-69
2023/09/23 05:47:42;;;;;;;11.57;6.90;;;;;;;9.34;100.00;100981.59;6181381;23;20013;-69
2023/09/23 05:50:09;;;;;;;16.30;7.30;;;;;;;9.38;100.00;100995.53;6157362;23;20518;-69
2023/09/23 05:52:36;;;;;;;11.45;6.63;;;;;;;9.36;100.00;100992.91;6183198;23;20021;-69
2023/09/23 05:55:05;;;;;;;11.55;6.68;;;;;;;9.40;100.00;100995.53;6181995;23;20017;-69
2023/09/23 05:57:31;;;;;;;10.25;7.43;;;;;;;9.46;100.00;101005.97;6206071;23;20001;-70
2023/09/23 05:59:57;;;;;;;13.85;7.25;;;;;;;9.52;100.00;101004.19;6156878;23;20012;-69
2023/09/23 06:02:23;;;;;;;10.75;6.65;;;;;;;9.64;100.00;101002.38;6156844;23;20013;-69
2023/09/23 06:04:49;;;;;;;10.27;6.72;;;;;;;9.71;100.00;101010.19;6157459;23;20443;-69
2023/09/23 06:07:14;;;;;;;9.50;6.03;;;;;;;9.79;100.00;101017.13;6181903;23;20024;-69
2023/09/23 06:09:44;;;;;;;9.45;6.03;;;;;;;10.23;100.00;101029.94;6158005;23;20005;-70
2023/09/23 06:12:10;;;;;;;8.20;5.40;;;;;;;10.83;100.00;101032.94;6157733;23;20436;-70
2023/09/23 06:14:35;;;;;;;11.55;5.35;;;;;;;10.87;100.00;101032.03;6183083;23;20087;-70
2023/09/23 06:17:01;;;;;;;10.70;5.47;;;;;;;10.91;100.00;101045.09;6155554;23;20087;-70
2023/09/23 06:19:27;;;;;;;9.43;4.95;;;;;;;11.33;100.00;101042.03;6181837;23;20395;-70
2023/09/23 06:21:54;;;;;;;8.25;4.85;;;;;;;12.43;100.00;101045.81;6157388;23;20009;-70
2023/09/23 06:24:19;;;;;;;13.48;4.20;;;;;;;13.20;100.00;101062.84;6182789;23;20008;-70
2023/09/23 06:26:45;;;;;;;6.57;3.67;;;;;;;13.23;98.68;101061.94;6181977;23;20407;-70
2023/09/23 06:29:14;;;;;;;7.82;3.50;;;;;;;13.37;98.30;101069.59;6156987;23;20432;-70
2023/09/23 06:31:40;;;;;;;7.35;3.72;;;;;;;12.62;98.43;101083.19;6182709;23;20032;-69
2023/09/23 06:34:06;;;;;;;7.70;4.22;;;;;;;12.25;100.00;101076.72;6181759;23;20023;-70
2023/09/23 06:36:33;;;;;;;7.65;4.20;;;;;;;12.20;100.00;101075.06;6181559;23;20013;-70
2023/09/23 06:38:59;;;;;;;5.20;3.80;;;;;;;11.95;100.00;101075.41;6157102;23;20016;-70
2023/09/23 06:41:25;;;;;;;6.78;3.60;;;;;;;12.56;100.00;101085.91;6206986;23;20044;-70
2023/09/23 06:43:52;;;;;;;6.53;3.55;;;;;;;13.86;98.16;101094.91;6183720;23;20005;-70
2023/09/23 06:46:17;;;;;;;7.13;3.28;;;;;;;15.11;89.08;101099.03;6207024;23;20339;-70
2023/09/23 06:48:43;;;;;;;6.68;3.30;;;;;;;17.00;86.20;101100.41;6181380;23;20016;-70
2023/09/23 06:51:09;;;;;;;7.30;3.00;;;;;;;16.94;77.63;101101.47;6181693;23;20012;-70
2023/09/23 06:53:34;;;;;;;5.75;2.53;;;;;;;17.77;74.51;101104.72;6182170;23;20120;-70
2023/09/23 06:56:00;;;;;;;5.68;2.80;;;;;;;18.52;71.70;101099.16;6180461;23;20001;-71
2023/09/23 06:58:25;;;;;;;4.00;2.33;;;;;;;18.61;69.36;101103.22;6156868;23;20109;-70
2023/09/23 07:00:51;;;;;;;5.78;2.60;;;;;;;19.83;68.78;101107.75;6183212;23;20339;-71
2023/09/23 07:03:16;;;;;;;6.10;2.35;;;;;;;20.12;63.68;101100.19;6207718;23;20084;-70
2023/09/23 07:05:42;;;;;;;6.40;2.50;;;;;;;20.02;60.71;101108.59;6184214;23;20376;-70
2023/09/23 07:08:08;;;;;;;6.28;2.30;;;;;;;20.33;62.21;101108.91;6183245;23;20053;-70
2023/09/23 07:10:38;;;;;;;4.93;2.47;;;;;;;21.60;59.39;101120.28;6158760;23;20013;-70
2023/09/23 07:13:04;;;;;;;7.20;2.58;;;;;;;22.79;57.09;101119.00;6183674;23;20017;-70
2023/09/23 07:15:37;;;;;;;4.75;2.30;;;;;;;22.01;56.34;101135.00;6159008;23;20020;-71
2023/09/23 07:18:03;;;;;;;3.28;1.95;;;;;;;23.07;53.13;101122.69;6183655;23;20407;-71
2023/09/23 07:20:28;;;;;;;4.72;2.20;;;;;;;23.12;52.54;101127.81;6183531;23;20005;-71
2023/09/23 07:22:54;;;;;;;8.65;2.38;;;;;;;22.31;54.15;101139.53;6158207;23;20027;-71
2023/09/23 07:25:19;;;;;;;5.32;2.20;;;;;;;21.77;53.97;101154.03;6158243;23;20096;-70
2023/09/23 07:27:46;;;;;;;5.53;2.60;;;;;;;22.71;53.88;101145.28;6183469;23;20009;-71
2023/09/23 07:30:12;;;;;;;5.53;2.17;;;;;;;22.47;55.15;101151.13;6207804;23;20477;-71
2023/09/23 07:32:37;;;;;;;5.60;2.45;;;;;;;21.05;57.48;101163.97;6207841;23;20001;-71
2023/09/23 07:35:03;;;;;;;5.97;2.25;;;;;;;20.25;62.22;101159.84;6182449;23;20009;-71
2023/09/23 07:37:29;;;;;;;6.50;2.60;;;;;;;19.99;64.23;101167.25;6134364;23;20045;-71
2023/09/23 07:39:54;;;;;;;7.22;2.78;;;;;;;19.34;63.41;101170.13;6183356;23;20009;-71
2023/09/23 07:42:20;;;;;;;7.93;2.70;;;;;;;19.29;65.91;101172.09;6183394;23;20015;-70
2023/09/23 07:44:46;;;;;;;4.00;2.30;;;;;;;18.78;65.38;101166.22;6182879;23;20023;-71
2023/09/23 07:47:11;;;;;;;7.95;3.13;;;;;;;18.23;68.02;101165.75;6207783;23;20083;-71
2023/09/23 07:49:37;;;;;;;5.43;2.72;;;;;;;17.80;68.44;101173.50;6158264;23;20016;-71
2023/09/23 07:52:03;;;;;;;5.25;2.63;;;;;;;17.69;70.94;101173.91;6158766;23;20004;-70
2023/09/23 07:54:29;;;;;;;4.60;2.25;;;;;;;17.78;72.82;101180.66;6157977;23;20020;-70
2023/09/23 07:56:54;;;;;;;5.97;2.78;;;;;;;17.65;73.22;101183.75;6183245;23;20013;-71
2023/09/23 07:59:19;;;;;;;6.68;3.05;;;;;;;17.52;72.02;101187.75;6158437;23;20015;-70
2023/09/23 08:01:45;;;;;;;6.28;3.03;;;;;;;17.47;75.48;101179.13;6158133;23;20029;-71
2023/09/23 08:04:10;;;;;;;7.05;3.10;;;;;;;16.73;75.10;101189.50;6156826;23;20009;-70
2023/09/23 08:06:37;;;;;;;5.28;2.85;;;;;;;16.57;76.00;101186.47;6158297;23;20005;-70
2023/09/23 08:09:03;;;;;;;5.43;2.90;;;;;;;16.54;78.88;101192.72;6157949;23;20031;-70
2023/09/23 08:11:28;;;;;;;5.72;2.95;;;;;;;16.11;77.26;101201.94;6183325;23;20009;-70
2023/09/23 08:13:54;;;;;;;7.03;2.88;;;;;;;16.52;79.49;101207.78;6157869;23;20458;-70
2023/09/23 08:16:21;;;;;;;5.70;2.80;;;;;;;16.35;79.51;101204.75;6157735;23;20009;-69
2023/09/23 08:18:46;;;;;;;5.40;2.75;;;;;;;16.22;80.47;101213.06;6133734;23;20016;-70
2023/09/23 08:21:11;;;;;;;7.15;3.17;;;;;;;16.08;79.84;101220.53;6182700;23;20338;-70
2023/09/23 08:23:37;;;;;;;9.85;3.15;;;;;;;15.77;80.50;101216.97;6157737;23;20019;-70
2023/09/23 08:26:04;;;;;;;6.28;2.75;;;;;;;15.63;81.08;101228.78;6183259;23;20009;-69
2023/09/23 08:28:30;;;;;;;6.07;2.65;;;;;;;16.12;80.13;101222.19;6158519;23;20005;-69
2023/09/23 08:30:56;;;;;;;5.40;2.90;;;;;;;16.43;79.52;101226.56;6157020;23;20024;-70
2023/09/23 08:33:21;;;;;;;6.55;2.80;;;;;;;16.63;78.92;101233.91;6156422;23;20355;-70
2023/09/23 08:35:47;;;;;;;6.22;3.13;;;;;;;16.81;80.44;101237.75;6182945;23;20001;-70
2023/09/23 08:38:14;;;;;;;7.65;2.78;;;;;;;16.88;78.43;101246.38;6182686;23;20401;-70
2023/09/23 08:40:42;;;;;;;5.25;2.88;;;;;;;17.21;78.32;101249.75;6207282;23;20155;-70
2023/09/23 08:43:07;;;;;;;6.97;2.78;;;;;;;17.16;79.03;101254.31;6182462;23;20407;-70
2023/09/23 08:45:46;;;;;;;7.20;2.88;;;;;;;17.28;80.15;101271.59;6208325;23;20068;-70
2023/09/23 08:48:16;;;;;;;7.25;3.08;;;;;;;17.46;77.43;101270.13;6206752;23;20001;-70
2023/09/23 08:50:46;;;;;;;;;;;;;;;18.08;75.49;101268.84;6208288;23;20113;-70
2023/09/23 08:53:16;;;;;;;5.97;2.40;;;;;;;17.25;77.46;101275.19;6182269;23;20238;-70
2023/09/23 08:55:44;;;;;;;6.18;2.53;;;;;;;17.31;76.52;101274.13;6182908;23;20055;-70
2023/09/23 08:58:09;;;;;;;8.05;3.08;;;;;;;17.72;77.28;101274.50;6182446;23;20042;-70
2023/09/23 09:00:34;;;;;;;5.13;2.40;;;;;;;17.89;75.86;101276.59;6182652;23;20019;-70
2023/09/23 09:03:00;;;;;;;7.57;2.70;;;;;;;18.16;75.95;101279.19;6180330;23;20364;-70
2023/09/23 09:05:39;;;;;;;6.28;2.30;;;;;;;18.62;74.87;101288.09;6182028;23;20013;-69
2023/09/23 09:08:06;;;;;;;6.38;2.55;;;;;;;18.14;72.62;101281.03;6207179;23;20043;-70
2023/09/23 09:10:32;;;;;;;5.35;2.45;;;;;;;18.11;73.86;101283.78;6182311;23;20023;-70
2023/09/23 09:13:01;;;;;;;8.13;2.72;;;;;;;17.57;74.53;101293.59;6157556;23;20041;-69
2023/09/23 09:15:26;;;;;;;8.93;2.80;;;;;;;17.46;74.38;101288.66;6182059;23;20036;-69
2023/09/23 09:17:51;;;;;;;5.10;2.20;;;;;;;17.31;76.41;101295.31;6156270;23;20013;-69
2023/09/23 09:20:17;;;;;;;6.65;2.60;;;;;;;16.90;77.62;101305.47;6181056;23;20031;-70
2023/09/23 09:22:45;;;;;;;5.80;2.30;;;;;;;16.60;79.44;101316.88;6157057;23;20156;-69
2023/09/23 09:25:11;;;;;;;6.70;2.30;;;;;;;16.61;79.85;101310.69;6207140;23;20016;-70
2023/09/23 09:27:37;;;;;;;6.45;2.55;;;;;;;16.67;82.05;101312.28;6157895;23;20405;-70
2023/09/23 09:30:06;;;;;;;7.20;2.65;;;;;;;16.47;81.76;101312.84;6181708;23;20040;-70
2023/09/23 09:32:32;;;;;;;8.27;2.45;;;;;;;16.17;80.25;101319.88;6158104;23;20028;-70
2023/09/23 09:35:02;;;;;;;6.22;2.50;;;;;;;15.81;82.67;101328.75;6156805;23;20317;-69
2023/09/23 09:37:27;;;;;;;6.18;2.50;;;;;;;15.80;83.67;101331.44;6206796;23;20008;-70
2023/09/23 09:39:57;;;;;;;4.40;2.08;;;;;;;15.62;84.01;101333.59;6206373;23;20005;-70
2023/09/23 09:42:33;;;;;;;3.47;2.33;;;;;;;15.47;85.47;101337.47;6181672;23;20371;-70
2023/09/23 09:44:59;;;;;;;6.85;2.75;;;;;;;15.32;85.00;101340.50;6183041;23;20036;-69
2023/09/23 09:47:27;;;;;;;6.75;2.38;;;;;;;15.11;86.51;101347.13;6206384;23;20371;-69
2023/09/23 09:49:54;;;;;;;6.95;2.65;;;;;;;15.20;87.78;101339.88;6181842;23;20009;-69
2023/09/23 09:52:26;;;;;;;5.97;2.53;;;;;;;15.45;86.75;101327.88;6157470;23;20325;-69
2023/09/23 09:54:57;;;;;;;9.10;2.60;;;;;;;15.44;85.18;101334.91;6207230;23;20009;-69
2023/09/23 09:57:25;;;;;;;9.57;2.60;;;;;;;15.55;86.66;101338.16;6206683;23;20343;-69
2023/09/23 09:59:53;;;;;;;7.10;2.67;;;;;;;15.50;86.88;101339.16;6157502;23;20016;-69
2023/09/23 10:02:21;;;;;;;5.88;2.28;;;;;;;15.58;87.35;101335.44;6181923;23;20100;-69
2023/09/23 10:04:49;;;;;;;9.63;2.38;;;;;;;15.42;86.17;101336.72;6156820;23;20028;-69
2023/09/23 10:07:16;;;;;;;6.68;2.88;;;;;;;15.41;86.77;101350.81;6182006;23;20059;-69
2023/09/23 10:09:55;;;;;;;6.35;2.22;;;;;;;15.52;87.13;101338.22;6181725;23;20041;-70
2023/09/23 10:12:31;;;;;;;8.80;2.25;;;;;;;15.58;87.15;101348.63;6181092;23;20005;-69
2023/09/23 10:14:57;;;;;;;8.55;2.53;;;;;;;15.59;86.50;101349.53;6159031;23;20343;-69
2023/09/23 10:17:33;;;;;;;5.90;2.65;;;;;;;15.52;87.18;101343.53;6206254;23;20056;-69
2023/09/23 10:20:00;;;;;;;6.75;2.25;;;;;;;15.49;87.57;101355.94;6180370;23;20088;-69
2023/09/23 10:22:28;;;;;;;5.07;2.00;;;;;;;15.58;87.52;101353.94;6206308;23;20016;-69
2023/09/23 10:25:04;;;;;;;8.65;2.60;;;;;;;15.57;85.31;101357.50;6206940;23;20005;-69
2023/09/23 10:27:31;;;;;;;6.55;2.30;;;;;;;15.59;85.21;101360.09;6156876;23;20017;-69
2023/09/23 10:29:57;;;;;;;5.07;2.42;;;;;;;15.51;85.10;101364.69;6156924;23;20339;-69
2023/09/23 10:32:22;;;;;;;6.35;2.28;;;;;;;15.48;85.61;101367.41;6179423;23;20025;-69
2023/09/23 10:34:53;;;;;;;6.22;2.42;;;;;;;15.56;86.69;101366.31;6181320;23;20108;-69
2023/09/23 10:37:32;;;;;;;5.07;2.70;;;;;;;15.54;86.08;101378.72;6181595;23;20079;-69
2023/09/23 10:40:17;;;;;;;13.23;3.10;;;;;;;15.65;85.81;101382.84;6181506;23;20012;-69
2023/09/23 10:42:44;;;;;;;6.70;2.90;;;;;;;15.61;86.94;101384.69;6181963;23;20012;-69
2023/09/23 10:45:11;;;;;;;5.20;2.88;;;;;;;15.64;86.52;101383.75;6206636;23;20387;-69
2023/09/23 10:47:37;;;;;;;6.93;2.88;;;;;;;15.87;87.90;101383.22;6132419;23;20013;-69
2023/09/23 10:50:06;;;;;;;7.88;2.95;;;;;;;15.85;86.10;101379.75;6180776;23;20017;-69
2023/09/23 10:52:34;;;;;;;7.65;3.08;;;;;;;16.01;88.35;101388.16;6157542;23;20013;-69
2023/09/23 10:55:00;;;;;;;6.25;2.90;;;;;;;16.27;86.73;101384.81;6156931;23;20025;-70
2023/09/23 10:57:27;;;;;;;6.72;2.80;;;;;;;16.22;83.29;101392.00;6206578;23;20009;-69
2023/09/23 10:59:53;;;;;;;7.20;2.80;;;;;;;16.44;85.53;101387.88;6181949;23;20001;-69
2023/09/23 11:02:20;;;;;;;4.78;2.50;;;;;;;16.41;83.30;101400.31;6206201;23;20080;-69
2023/09/23 11:04:49;;;;;;;6.78;2.75;;;;;;;16.21;83.15;101404.34;6206653;23;20005;-68
2023/09/23 11:07:16;;;;;;;5.90;2.67;;;;;;;16.08;82.61;101410.88;6206660;23;20392;-69
2023/09/23 11:09:47;;;;;;;4.68;2.50;;;;;;;16.09;84.92;101410.84;6156849;23;20100;-69
2023/09/23 11:12:17;;;;;;;6.63;2.83;;;;;;;15.98;82.91;101412.03;6206801;23;20470;-69
2023/09/23 11:14:45;;;;;;;7.10;3.10;;;;;;;15.98;83.48;101415.53;6182949;23;20340;-69
2023/09/23 11:17:29;;;;;;;7.03;2.72;;;;;;;16.22;86.19;101426.38;6181231;23;20674;-70
2023/09/23 11:19:59;;;;;;;5.35;2.45;;;;;;;16.11;83.28;101426.66;6131971;23;20009;-69